createdAt,value
2022-08-07T00:01:00.619Z,3.85
2022-08-07T00:04:25.882Z,4.28
2022-08-07T00:07:40.180Z,4.05
2022-08-07T00:10:47.855Z,4.28
2022-08-07T00:14:04.183Z,4.20
2022-08-07T00:17:10.305Z,6.13
2022-08-07T00:20:29.923Z,6.47
2022-08-07T00:23:41.556Z,6.88
2022-08-07T00:26:59.026Z,4.97
2022-08-07T00:30:26.832Z,3.95
2022-08-07T00:33:34.253Z,4.63
2022-08-07T00:36:42.985Z,4.43
2022-08-07T00:39:54.373Z,6.13
2022-08-07T00:43:00.308Z,4.95
2022-08-07T00:46:07.998Z,5.30
2022-08-07T00:49:24.924Z,7.32
2022-08-07T00:52:39.466Z,4.25
2022-08-07T00:56:00.355Z,5.03
2022-08-07T00:59:09.899Z,6.10
2022-08-07T01:02:28.473Z,5.03
2022-08-07T01:05:36.519Z,6.30
2022-08-07T01:08:52.074Z,9.43
2022-08-07T01:12:10.184Z,11.57
2022-08-07T01:16:00.422Z,12.57
2022-08-07T01:18:53.223Z,9.35
2022-08-07T01:22:03.250Z,7.57
2022-08-07T01:25:40.410Z,7.72
2022-08-07T01:28:46.025Z,5.95
2022-08-07T01:31:59.623Z,5.63
2022-08-07T01:35:08.411Z,6.75
2022-08-07T01:38:25.156Z,6.22
2022-08-07T01:41:34.619Z,6.95
2022-08-07T01:44:41.996Z,5.05
2022-08-07T01:48:20.976Z,6.55
2022-08-07T01:51:58.673Z,5.47
2022-08-07T01:54:47.912Z,5.45
2022-08-07T01:58:06.562Z,6.20
2022-08-07T02:01:59.931Z,6.85
2022-08-07T02:04:57.691Z,6.90
2022-08-07T02:08:11.286Z,5.10
2022-08-07T02:11:31.128Z,5.90
2022-08-07T02:14:53.471Z,5.40
2022-08-07T02:18:10.878Z,6.90
2022-08-07T02:21:18.407Z,6.30
2022-08-07T02:24:25.391Z,5.32
2022-08-07T02:27:37.287Z,6.38
2022-08-07T02:30:47.388Z,6.78
2022-08-07T02:34:04.022Z,8.00
2022-08-07T02:37:20.963Z,7.35
2022-08-07T02:40:30.442Z,8.27
2022-08-07T02:43:43.800Z,6.95
2022-08-07T02:46:56.614Z,8.20
2022-08-07T02:50:02.609Z,7.32
2022-08-07T02:53:16.166Z,5.00
2022-08-07T02:56:24.070Z,7.07
2022-08-07T02:59:35.346Z,6.95
2022-08-07T03:02:55.060Z,7.60
2022-08-07T03:06:02.949Z,7.28
2022-08-07T03:09:11.317Z,8.82
2022-08-07T03:12:22.690Z,7.95
2022-08-07T03:15:47.986Z,7.68
2022-08-07T03:19:03.461Z,11.10
2022-08-07T03:22:18.904Z,8.32
2022-08-07T03:25:25.473Z,7.78
2022-08-07T03:28:37.729Z,8.13
2022-08-07T03:31:50.044Z,8.20
2022-08-07T03:35:16.906Z,7.78
2022-08-07T03:38:29.883Z,7.50
2022-08-07T03:41:42.475Z,10.07
2022-08-07T03:44:57.767Z,10.27
2022-08-07T03:48:10.013Z,9.18
2022-08-07T03:51:17.474Z,8.07
2022-08-07T03:54:35.590Z,7.57
2022-08-07T03:58:34.439Z,10.48
2022-08-07T04:01:20.885Z,9.43
2022-08-07T04:04:32.775Z,9.15
2022-08-07T04:07:46.823Z,10.73
2022-08-07T04:12:21.312Z,10.63
2022-08-07T04:14:38.751Z,9.90
2022-08-07T04:18:31.274Z,9.43
2022-08-07T04:21:17.437Z,13.80
2022-08-07T04:24:30.582Z,7.82
2022-08-07T04:27:44.317Z,9.27
2022-08-07T04:30:57.098Z,6.53
2022-08-07T04:34:16.612Z,8.55
2022-08-07T04:37:24.957Z,6.18
2022-08-07T04:40:35.732Z,7.53
2022-08-07T04:44:13.090Z,8.60
2022-08-07T04:47:58.893Z,8.85
2022-08-07T04:51:05.781Z,8.57
2022-08-07T04:54:29.958Z,6.93
2022-08-07T04:58:11.026Z,7.13
2022-08-07T05:01:18.839Z,9.00
2022-08-07T05:04:35.905Z,6.40
2022-08-07T05:07:56.938Z,9.02
2022-08-07T05:11:12.008Z,5.70
2022-08-07T05:14:55.526Z,5.70
2022-08-07T05:18:00.454Z,6.10
2022-08-07T05:21:10.770Z,6.82
2022-08-07T05:24:18.731Z,8.90
2022-08-07T05:28:16.807Z,8.02
2022-08-07T05:31:00.966Z,8.05
2022-08-07T05:34:11.647Z,6.50
2022-08-07T05:37:25.321Z,6.13
2022-08-07T05:40:50.584Z,9.50
2022-08-07T05:44:08.081Z,7.50
2022-08-07T05:47:19.950Z,7.32
2022-08-07T05:50:28.950Z,8.40
2022-08-07T05:54:13.345Z,5.97
2022-08-07T05:57:00.315Z,7.68
2022-08-07T06:00:09.286Z,7.65
2022-08-07T06:03:53.769Z,8.93
2022-08-07T06:07:03.769Z,5.90
2022-08-07T06:10:15.103Z,8.73
2022-08-07T06:14:10.951Z,6.13
2022-08-07T06:16:55.883Z,5.97
2022-08-07T06:20:12.375Z,5.07
2022-08-07T06:23:46.465Z,6.68
2022-08-07T06:26:43.705Z,6.45
2022-08-07T06:29:50.076Z,6.93
2022-08-07T06:32:56.676Z,7.00
2022-08-07T06:36:06.526Z,6.70
2022-08-07T06:40:16.174Z,6.30
2022-08-07T06:42:54.565Z,6.05
2022-08-07T06:46:31.516Z,5.87
2022-08-07T06:49:50.915Z,7.82
2022-08-07T06:53:04.324Z,7.90
2022-08-07T06:56:15.261Z,5.63
2022-08-07T07:00:13.246Z,5.13
2022-08-07T07:02:58.049Z,4.40
2022-08-07T07:06:11.129Z,9.55
2022-08-07T07:12:54.511Z,4.03
2022-08-07T07:16:05.176Z,8.15
2022-08-07T07:19:55.204Z,7.00
2022-08-07T07:24:09.777Z,4.85
2022-08-07T07:26:34.133Z,7.13
2022-08-07T07:30:09.430Z,4.60
2022-08-07T07:33:13.655Z,5.35
2022-08-07T07:36:22.898Z,4.03
2022-08-07T07:39:52.048Z,5.03
2022-08-07T07:43:11.662Z,4.13
2022-08-07T07:46:40.233Z,5.18
2022-08-07T07:50:35.099Z,4.90
2022-08-07T07:53:25.778Z,3.85
2022-08-07T07:56:33.410Z,2.60
2022-08-07T07:59:52.548Z,3.72
2022-08-07T08:06:13.462Z,3.53
2022-08-07T08:09:22.911Z,2.00
2022-08-07T08:12:52.024Z,3.22
2022-08-07T08:16:01.739Z,5.60
2022-08-07T08:19:18.170Z,3.03
2022-08-07T08:22:58.356Z,2.97
2022-08-07T08:26:23.552Z,3.45
2022-08-07T08:29:37.361Z,2.83
2022-08-07T08:33:03.029Z,2.95
2022-08-07T08:36:12.929Z,4.30
2022-08-07T08:39:22.581Z,3.50
2022-08-07T08:42:32.793Z,4.03
2022-08-07T08:49:14.633Z,2.60
2022-08-07T08:52:32.268Z,2.35
2022-08-07T08:55:54.276Z,4.55
2022-08-07T08:59:12.903Z,3.60
2022-08-07T09:02:34.717Z,3.10
2022-08-07T09:05:47.776Z,3.60
2022-08-07T09:09:01.624Z,3.08
2022-08-07T09:12:20.007Z,3.13
2022-08-07T09:16:22.942Z,2.22
2022-08-07T09:19:51.106Z,3.50
2022-08-07T09:24:33.530Z,3.33
2022-08-07T09:26:47.801Z,3.72
2022-08-07T09:33:40.928Z,3.40
2022-08-07T09:36:59.408Z,2.58
2022-08-07T09:40:10.524Z,2.78
2022-08-07T09:43:40.604Z,2.83
2022-08-07T09:47:50.934Z,3.03
2022-08-07T09:50:37.290Z,2.17
2022-08-07T09:53:56.219Z,1.55
2022-08-07T09:57:18.780Z,2.55
2022-08-07T10:00:33.265Z,2.97
2022-08-07T10:04:05.214Z,1.98
2022-08-07T10:07:31.815Z,5.00
2022-08-07T10:11:17.277Z,2.75
2022-08-07T10:14:43.716Z,2.95
2022-08-07T10:18:26.666Z,3.53
2022-08-07T10:22:12.516Z,1.70
2022-08-07T10:25:22.863Z,4.22
2022-08-07T10:28:55.263Z,1.70
2022-08-07T10:32:51.291Z,1.90
2022-08-07T10:36:05.491Z,5.40
2022-08-07T10:39:42.129Z,4.03
2022-08-07T10:43:05.832Z,1.48
2022-08-07T10:46:19.070Z,4.70
2022-08-07T10:49:49.197Z,1.92
2022-08-07T10:53:10.389Z,1.77
2022-08-07T10:56:31.132Z,2.30
2022-08-07T10:59:52.735Z,3.10
2022-08-07T11:03:11.176Z,2.70
2022-08-07T11:06:22.949Z,3.05
2022-08-07T11:10:07.209Z,1.55
2022-08-07T11:14:42.665Z,2.80
2022-08-07T11:16:38.231Z,5.13
2022-08-07T11:19:51.989Z,3.28
2022-08-07T11:23:09.227Z,2.13
2022-08-07T11:26:21.138Z,2.80
2022-08-07T11:29:43.596Z,3.80
2022-08-07T11:32:58.553Z,3.45
2022-08-07T11:36:20.463Z,3.22
2022-08-07T11:40:03.581Z,3.65
2022-08-07T11:43:16.138Z,2.38
2022-08-07T11:46:44.756Z,5.22
2022-08-07T11:50:31.306Z,2.90
2022-08-07T11:57:59.938Z,2.72
2022-08-07T12:01:05.117Z,1.75
2022-08-07T12:04:29.319Z,1.77
2022-08-07T12:07:40.158Z,2.50
2022-08-07T12:11:08.162Z,1.45
2022-08-07T12:14:24.582Z,2.35
2022-08-07T12:17:59.247Z,2.63
2022-08-07T12:21:55.143Z,2.92
2022-08-07T12:25:07.831Z,6.90
2022-08-07T12:28:31.098Z,1.83
2022-08-07T12:32:01.924Z,1.67
2022-08-07T12:35:12.950Z,1.95
2022-08-07T12:38:36.842Z,1.83
2022-08-07T12:41:51.618Z,4.05
2022-08-07T12:45:05.676Z,1.65
2022-08-07T12:48:27.651Z,1.90
2022-08-07T12:52:11.985Z,1.88
2022-08-07T12:55:16.601Z,1.83
2022-08-07T12:58:28.273Z,2.20
2022-08-07T13:01:58.365Z,2.97
2022-08-07T13:06:02.814Z,2.08
2022-08-07T13:08:52.712Z,2.55
2022-08-07T13:12:10.210Z,2.88
2022-08-07T13:15:29.349Z,1.40
2022-08-07T13:18:49.018Z,1.65
2022-08-07T13:22:09.714Z,3.53
2022-08-07T13:25:32.222Z,2.95
2022-08-07T13:28:42.646Z,1.42
2022-08-07T13:32:00.158Z,2.85
2022-08-07T13:36:00.733Z,3.33
2022-08-07T13:39:12.910Z,2.53
2022-08-07T13:42:28.875Z,3.65
2022-08-07T13:46:12.897Z,1.98
2022-08-07T13:49:08.885Z,3.40
2022-08-07T13:52:40.833Z,2.92
2022-08-07T13:55:54.810Z,2.78
2022-08-07T13:59:05.627Z,3.33
2022-08-07T14:02:29.704Z,6.28
2022-08-07T14:05:46.283Z,4.07
2022-08-07T14:08:58.910Z,4.25
2022-08-07T14:12:27.411Z,4.72
2022-08-07T14:15:39.315Z,4.45
2022-08-07T14:18:49.733Z,4.72
2022-08-07T14:22:12.467Z,5.30
2022-08-07T14:25:29.448Z,4.07
2022-08-07T14:28:57.730Z,5.00
2022-08-07T14:32:09.252Z,4.47
2022-08-07T14:35:45.664Z,4.75
2022-08-07T14:38:50.476Z,3.20
2022-08-07T14:42:20.013Z,5.32
2022-08-07T14:45:46.896Z,4.63
2022-08-07T14:48:56.464Z,6.63
2022-08-07T14:52:10.329Z,4.68
2022-08-07T14:55:17.474Z,6.25
2022-08-07T14:58:28.670Z,4.55
2022-08-07T15:05:19.659Z,6.20
2022-08-07T15:08:32.411Z,5.78
2022-08-07T15:11:54.304Z,6.65
2022-08-07T15:15:21.044Z,6.57
2022-08-07T15:18:40.220Z,7.05
2022-08-07T15:22:03.971Z,3.33
2022-08-07T15:28:42.139Z,6.10
2022-08-07T15:36:00.759Z,3.33
2022-08-07T15:38:59.138Z,4.80
2022-08-07T15:42:45.602Z,3.60
2022-08-07T15:45:56.230Z,3.80
2022-08-07T15:52:39.588Z,2.67
2022-08-07T15:56:02.018Z,4.10
2022-08-07T15:59:16.518Z,5.32
2022-08-07T16:02:26.687Z,5.68
2022-08-07T16:05:36.550Z,5.75
2022-08-07T16:08:45.781Z,6.47
2022-08-07T16:12:04.090Z,5.20
2022-08-07T16:15:54.521Z,5.18
2022-08-07T16:19:10.098Z,3.55
2022-08-07T16:22:54.939Z,4.57
2022-08-07T16:26:08.467Z,9.75
2022-08-07T16:30:09.541Z,25.25
2022-08-07T16:34:02.073Z,6.10
2022-08-07T16:37:01.961Z,7.10
2022-08-07T16:40:35.029Z,3.30
2022-08-07T16:44:08.598Z,4.60
2022-08-07T16:47:55.928Z,4.95
2022-08-07T16:51:57.756Z,3.15
2022-08-07T16:54:55.542Z,6.43
2022-08-07T16:58:04.383Z,3.53
2022-08-07T17:01:35.910Z,4.30
2022-08-07T17:06:01.943Z,4.05
2022-08-07T17:09:09.512Z,5.25
2022-08-07T17:12:35.582Z,5.25
2022-08-07T17:15:54.310Z,5.03
2022-08-07T17:19:15.851Z,4.38
2022-08-07T17:22:30.152Z,6.95
2022-08-07T17:25:57.157Z,5.55
2022-08-07T17:29:09.665Z,3.22
2022-08-07T17:32:52.204Z,6.28
2022-08-07T17:36:04.473Z,5.13
2022-08-07T17:39:22.627Z,5.03
2022-08-07T17:42:34.095Z,4.25
2022-08-07T17:45:44.715Z,4.25
2022-08-07T17:49:15.010Z,4.85
2022-08-07T17:52:39.588Z,4.90
2022-08-07T17:55:55.718Z,5.07
2022-08-07T17:59:16.851Z,3.78
2022-08-07T18:02:31.226Z,6.25
2022-08-07T18:06:01.959Z,3.65
2022-08-07T18:10:04.602Z,4.60
2022-08-07T18:13:26.168Z,6.35
2022-08-07T18:16:58.836Z,6.40
2022-08-07T18:21:06.658Z,4.43
2022-08-07T18:23:55.753Z,8.35
2022-08-07T18:27:38.082Z,6.10
2022-08-07T18:30:59.449Z,5.88
2022-08-07T18:34:37.149Z,5.05
2022-08-07T18:38:57.997Z,5.47
2022-08-07T18:41:45.107Z,6.03
2022-08-07T18:45:44.582Z,6.88
2022-08-07T18:49:23.759Z,4.68
2022-08-07T18:52:35.608Z,7.38
2022-08-07T18:55:56.066Z,4.45
2022-08-07T18:59:47.823Z,8.40
2022-08-07T19:03:12.034Z,4.43
2022-08-07T19:06:34.144Z,5.45
2022-08-07T19:09:56.122Z,6.90
2022-08-07T19:13:10.136Z,6.38
2022-08-07T19:17:00.689Z,5.80
2022-08-07T19:20:04.811Z,7.88
2022-08-07T19:23:19.404Z,2.92
2022-08-07T19:27:09.069Z,5.47
2022-08-07T19:31:03.178Z,6.80
2022-08-07T19:33:46.950Z,6.00
2022-08-07T19:37:17.128Z,5.97
2022-08-07T19:40:31.771Z,5.55
2022-08-07T19:43:51.251Z,6.07
2022-08-07T19:47:08.325Z,7.32
2022-08-07T19:50:44.552Z,6.05
2022-08-07T19:54:31.668Z,6.28
2022-08-07T19:58:00.720Z,4.63
2022-08-07T20:00:59.454Z,6.38
2022-08-07T20:04:08.578Z,7.18
2022-08-07T20:07:48.192Z,6.75
2022-08-07T20:10:55.896Z,8.95
2022-08-07T20:14:07.279Z,6.22
2022-08-07T20:17:21.014Z,6.50
2022-08-07T20:20:29.769Z,4.47
2022-08-07T20:23:42.169Z,6.60
2022-08-07T20:26:52.374Z,6.35
2022-08-07T20:30:02.233Z,6.13
2022-08-07T20:33:37.011Z,6.38
2022-08-07T20:36:43.885Z,7.25
2022-08-07T20:40:03.769Z,9.13
2022-08-07T20:43:14.651Z,8.20
2022-08-07T20:46:32.243Z,7.75
2022-08-07T20:49:59.191Z,8.90
2022-08-07T20:53:13.413Z,7.22
2022-08-07T20:56:26.260Z,9.57
2022-08-07T21:00:07.582Z,8.52
2022-08-07T21:03:05.748Z,9.57
2022-08-07T21:06:25.752Z,6.90
2022-08-07T21:09:52.453Z,9.18
2022-08-07T21:13:07.451Z,10.80
2022-08-07T21:16:15.969Z,9.00
2022-08-07T21:19:32.152Z,8.25
2022-08-07T21:22:55.425Z,8.25
2022-08-07T21:26:08.117Z,6.15
2022-08-07T21:29:19.287Z,9.68
2022-08-07T21:32:46.569Z,14.43
2022-08-07T21:36:05.277Z,12.25
2022-08-07T21:39:46.173Z,10.10
2022-08-07T21:42:55.870Z,9.00
2022-08-07T21:46:25.100Z,9.43
2022-08-07T21:50:03.041Z,9.18
2022-08-07T21:53:13.834Z,10.23
2022-08-07T21:56:36.716Z,9.18
2022-08-07T22:00:05.226Z,8.73
2022-08-07T22:03:30.951Z,8.98
2022-08-07T22:06:45.048Z,9.77
2022-08-07T22:09:55.404Z,7.03
2022-08-07T22:13:03.490Z,9.65
2022-08-07T22:16:43.090Z,11.13
2022-08-07T22:20:02.602Z,8.50
2022-08-07T22:23:18.291Z,8.20
2022-08-07T22:26:31.636Z,11.18
2022-08-07T22:29:48.329Z,7.40
2022-08-07T22:33:05.624Z,9.40
2022-08-07T22:36:23.685Z,10.27
2022-08-07T22:39:53.432Z,9.52
2022-08-07T22:43:04.190Z,7.97
2022-08-07T22:47:02.371Z,10.27
2022-08-07T22:50:20.770Z,8.65
2022-08-07T22:54:07.301Z,9.05
2022-08-07T22:57:37.438Z,7.07
2022-08-07T23:01:05.409Z,12.50
2022-08-07T23:04:30.108Z,9.27
2022-08-07T23:07:53.434Z,14.48
2022-08-07T23:11:19.048Z,10.07
2022-08-07T23:14:36.002Z,9.45
2022-08-07T23:18:09.416Z,7.85
2022-08-07T23:21:29.963Z,10.02
2022-08-07T23:24:47.672Z,13.82
2022-08-07T23:28:22.013Z,9.50
2022-08-07T23:34:18.860Z,6.45
2022-08-07T23:35:16.709Z,8.45
2022-08-07T23:38:36.880Z,7.88
2022-08-07T23:42:07.432Z,9.10
2022-08-07T23:45:33.413Z,10.70
2022-08-07T23:49:16.501Z,10.23
2022-08-07T23:52:59.939Z,9.55
2022-08-07T23:56:06.385Z,8.48
